createdAt,value
2023-05-21T00:01:40.552Z,100.00
2023-05-21T00:04:08.797Z,100.00
2023-05-21T00:06:36.495Z,100.00
2023-05-21T00:09:04.867Z,100.00
2023-05-21T00:11:32.564Z,100.00
2023-05-21T00:14:00.037Z,100.00
2023-05-21T00:16:27.404Z,100.00
2023-05-21T00:18:55.419Z,100.00
2023-05-21T00:21:23.002Z,100.00
2023-05-21T00:23:50.433Z,100.00
2023-05-21T00:26:17.689Z,100.00
2023-05-21T00:28:46.058Z,100.00
2023-05-21T00:31:13.541Z,100.00
2023-05-21T00:33:41.141Z,100.00
2023-05-21T00:36:09.062Z,100.00
2023-05-21T00:38:38.108Z,100.00
2023-05-21T00:41:05.524Z,100.00
2023-05-21T00:43:33.278Z,100.00
2023-05-21T00:46:00.651Z,100.00
2023-05-21T00:48:28.095Z,100.00
2023-05-21T00:50:55.658Z,100.00
2023-05-21T00:53:23.117Z,100.00
2023-05-21T00:55:51.087Z,100.00
2023-05-21T00:58:18.796Z,100.00
2023-05-21T01:00:47.106Z,100.00
2023-05-21T01:03:14.848Z,100.00
2023-05-21T01:05:45.287Z,100.00
2023-05-21T01:08:13.015Z,100.00
2023-05-21T01:10:42.905Z,100.00
2023-05-21T01:13:10.385Z,100.00
2023-05-21T01:15:39.141Z,100.00
2023-05-21T01:18:07.847Z,100.00
2023-05-21T01:20:35.611Z,100.00
2023-05-21T01:23:03.435Z,100.00
2023-05-21T01:25:30.892Z,100.00
2023-05-21T01:27:58.403Z,100.00
2023-05-21T01:30:25.921Z,100.00
2023-05-21T01:33:04.230Z,100.00
2023-05-21T01:35:34.078Z,100.00
2023-05-21T01:38:22.961Z,100.00
2023-05-21T01:40:58.873Z,100.00
2023-05-21T01:43:28.115Z,100.00
2023-05-21T01:45:57.426Z,100.00
2023-05-21T01:48:26.641Z,100.00
2023-05-21T01:50:55.921Z,100.00
2023-05-21T01:53:23.593Z,100.00
2023-05-21T01:55:51.205Z,100.00
2023-05-21T01:58:19.158Z,100.00
2023-05-21T02:00:46.955Z,100.00
2023-05-21T02:03:17.311Z,100.00
2023-05-21T02:05:45.074Z,100.00
2023-05-21T02:08:13.103Z,100.00
2023-05-21T02:10:40.961Z,100.00
2023-05-21T02:13:08.593Z,100.00
2023-05-21T02:15:37.051Z,100.00
2023-05-21T02:18:05.008Z,100.00
2023-05-21T02:20:34.244Z,100.00
2023-05-21T02:23:01.716Z,100.00
2023-05-21T02:25:29.120Z,100.00
2023-05-21T02:27:56.943Z,100.00
2023-05-21T02:30:24.437Z,100.00
2023-05-21T02:32:51.919Z,100.00
2023-05-21T02:35:19.557Z,100.00
2023-05-21T02:37:47.019Z,100.00
2023-05-21T02:40:16.106Z,100.00
2023-05-21T02:42:43.563Z,100.00
2023-05-21T02:45:15.425Z,100.00
2023-05-21T02:47:44.412Z,100.00
2023-05-21T02:50:13.964Z,100.00
2023-05-21T02:52:49.196Z,100.00
2023-05-21T02:55:16.678Z,100.00
2023-05-21T02:57:44.086Z,100.00
2023-05-21T03:00:12.065Z,100.00
2023-05-21T03:02:41.202Z,100.00
2023-05-21T03:05:09.552Z,100.00
2023-05-21T03:07:36.998Z,100.00
2023-05-21T03:10:05.272Z,100.00
2023-05-21T03:12:32.647Z,100.00
2023-05-21T03:15:01.006Z,100.00
2023-05-21T03:17:30.145Z,100.00
2023-05-21T03:19:57.614Z,100.00
2023-05-21T03:22:25.138Z,100.00
2023-05-21T03:24:53.595Z,100.00
2023-05-21T03:27:22.706Z,100.00
2023-05-21T03:29:52.065Z,100.00
2023-05-21T03:32:19.650Z,100.00
2023-05-21T03:34:48.848Z,100.00
2023-05-21T03:37:18.341Z,100.00
2023-05-21T03:39:45.892Z,100.00
2023-05-21T03:42:14.319Z,100.00
2023-05-21T03:44:47.188Z,100.00
2023-05-21T03:47:42.039Z,100.00
2023-05-21T03:50:11.233Z,100.00
2023-05-21T03:52:39.441Z,100.00
2023-05-21T03:55:07.268Z,100.00
2023-05-21T03:57:34.767Z,100.00
2023-05-21T04:00:02.806Z,100.00
2023-05-21T04:02:32.178Z,100.00
2023-05-21T04:04:59.960Z,100.00
2023-05-21T04:07:27.493Z,100.00
2023-05-21T04:09:54.927Z,100.00
2023-05-21T04:12:22.650Z,100.00
2023-05-21T04:14:50.154Z,100.00
2023-05-21T04:17:19.350Z,100.00
2023-05-21T04:19:46.914Z,100.00
2023-05-21T04:22:14.632Z,100.00
2023-05-21T04:24:42.819Z,100.00
2023-05-21T04:27:23.866Z,100.00
2023-05-21T04:29:52.058Z,100.00
2023-05-21T04:32:19.407Z,100.00
2023-05-21T04:34:46.722Z,100.00
2023-05-21T04:37:14.627Z,100.00
2023-05-21T04:39:42.566Z,100.00
2023-05-21T04:42:12.730Z,100.00
2023-05-21T04:44:41.571Z,100.00
2023-05-21T04:47:10.622Z,100.00
2023-05-21T04:49:38.132Z,100.00
2023-05-21T04:52:05.944Z,100.00
2023-05-21T04:54:33.473Z,100.00
2023-05-21T04:57:01.537Z,100.00
2023-05-21T04:59:29.046Z,100.00
2023-05-21T05:01:56.330Z,100.00
2023-05-21T05:04:24.060Z,100.00
2023-05-21T05:06:52.545Z,100.00
2023-05-21T05:09:21.700Z,100.00
2023-05-21T05:11:49.212Z,100.00
2023-05-21T05:14:16.662Z,100.00
2023-05-21T05:16:48.228Z,100.00
2023-05-21T05:19:16.695Z,100.00
2023-05-21T05:21:44.779Z,100.00
2023-05-21T05:24:12.592Z,100.00
2023-05-21T05:26:40.313Z,100.00
2023-05-21T05:29:07.717Z,100.00
2023-05-21T05:31:35.259Z,100.00
2023-05-21T05:34:02.841Z,100.00
2023-05-21T05:36:30.408Z,100.00
2023-05-21T05:38:57.961Z,100.00
2023-05-21T05:41:26.770Z,100.00
2023-05-21T05:43:54.261Z,100.00
2023-05-21T05:46:23.022Z,100.00
2023-05-21T05:48:51.789Z,100.00
2023-05-21T05:51:19.224Z,100.00
2023-05-21T05:53:46.806Z,100.00
2023-05-21T05:56:14.477Z,100.00
2023-05-21T05:58:41.934Z,100.00
2023-05-21T06:01:12.158Z,100.00
2023-05-21T06:03:40.512Z,100.00
2023-05-21T06:06:18.881Z,100.00
2023-05-21T06:08:46.599Z,100.00
2023-05-21T06:11:17.225Z,100.00
2023-05-21T06:13:45.826Z,100.00
2023-05-21T06:16:15.803Z,100.00
2023-05-21T06:18:43.341Z,100.00
2023-05-21T06:21:10.874Z,100.00
2023-05-21T06:23:38.893Z,100.00
2023-05-21T06:26:06.481Z,100.00
2023-05-21T06:28:34.083Z,100.00
2023-05-21T06:31:02.091Z,100.00
2023-05-21T06:33:32.148Z,100.00
2023-05-21T06:35:59.821Z,100.00
2023-05-21T06:38:28.574Z,100.00
2023-05-21T06:40:56.126Z,100.00
2023-05-21T06:43:40.479Z,100.00
2023-05-21T06:46:31.475Z,100.00
2023-05-21T06:49:01.104Z,100.00
2023-05-21T06:51:28.507Z,100.00
2023-05-21T06:53:56.494Z,98.58
2023-05-21T06:56:24.146Z,99.43
2023-05-21T06:58:54.722Z,96.98
2023-05-21T07:01:22.997Z,94.57
2023-05-21T07:03:50.515Z,88.66
2023-05-21T07:06:18.792Z,88.25
2023-05-21T07:08:48.204Z,85.18
2023-05-21T07:11:15.809Z,77.42
2023-05-21T07:13:43.365Z,84.44
2023-05-21T07:16:11.072Z,80.32
2023-05-21T07:18:40.030Z,79.32
2023-05-21T07:21:07.435Z,77.43
2023-05-21T07:23:36.180Z,77.51
2023-05-21T07:26:03.637Z,78.29
2023-05-21T07:28:31.298Z,75.20
2023-05-21T07:30:58.872Z,75.77
2023-05-21T07:33:32.926Z,72.02
2023-05-21T07:36:00.392Z,75.92
2023-05-21T07:38:27.851Z,75.82
2023-05-21T07:40:55.660Z,76.80
2023-05-21T07:43:23.275Z,66.78
2023-05-21T07:45:51.758Z,61.09
2023-05-21T07:48:19.676Z,61.71
2023-05-21T07:50:53.665Z,55.97
2023-05-21T07:53:21.922Z,56.36
2023-05-21T07:55:50.353Z,55.85
2023-05-21T07:58:23.546Z,53.62
2023-05-21T08:00:51.207Z,53.16
2023-05-21T08:03:19.239Z,50.74
2023-05-21T08:05:51.055Z,50.06
2023-05-21T08:08:19.328Z,49.13
2023-05-21T08:10:50.360Z,48.34
2023-05-21T08:13:18.446Z,47.71
2023-05-21T08:15:49.088Z,48.30
2023-05-21T08:18:18.431Z,49.08
2023-05-21T08:20:48.487Z,46.46
2023-05-21T08:23:18.715Z,48.11
2023-05-21T08:25:50.646Z,45.92
2023-05-21T08:28:18.137Z,45.14
2023-05-21T08:30:46.373Z,45.44
2023-05-21T08:33:15.061Z,45.65
2023-05-21T08:35:42.719Z,44.75
2023-05-21T08:38:36.653Z,45.31
2023-05-21T08:41:13.424Z,47.66
2023-05-21T08:43:41.198Z,45.18
2023-05-21T08:46:09.902Z,45.48
2023-05-21T08:48:40.924Z,43.97
2023-05-21T08:51:08.484Z,43.01
2023-05-21T08:53:42.393Z,43.34
2023-05-21T08:56:13.229Z,42.94
2023-05-21T08:58:49.022Z,43.20
2023-05-21T09:01:19.972Z,42.35
2023-05-21T09:03:52.892Z,41.65
2023-05-21T09:06:21.614Z,41.97
2023-05-21T09:08:54.117Z,40.46
2023-05-21T09:11:27.172Z,40.47
2023-05-21T09:13:58.386Z,40.73
2023-05-21T09:16:33.612Z,40.03
2023-05-21T09:19:04.650Z,40.00
2023-05-21T09:21:35.481Z,38.45
2023-05-21T09:24:15.343Z,38.49
2023-05-21T09:26:44.365Z,39.60
2023-05-21T09:29:13.400Z,38.57
2023-05-21T09:31:45.382Z,38.47
2023-05-21T09:34:17.110Z,38.64
2023-05-21T09:36:47.326Z,39.05
2023-05-21T09:39:29.958Z,38.78
2023-05-21T09:42:01.038Z,39.50
2023-05-21T09:44:28.521Z,37.44
2023-05-21T09:46:58.917Z,39.17
2023-05-21T09:49:26.844Z,40.17
2023-05-21T09:51:56.249Z,37.64
2023-05-21T09:54:24.476Z,37.98
2023-05-21T09:56:55.367Z,37.84
2023-05-21T09:59:23.137Z,36.95
2023-05-21T10:01:51.951Z,37.18
2023-05-21T10:04:20.063Z,38.13
2023-05-21T10:06:48.184Z,38.72
2023-05-21T10:09:18.966Z,37.97
2023-05-21T10:11:47.306Z,38.11
2023-05-21T10:14:20.226Z,37.45
2023-05-21T10:16:48.549Z,37.73
2023-05-21T10:19:16.491Z,37.96
2023-05-21T10:21:45.068Z,37.82
2023-05-21T10:24:13.399Z,37.66
2023-05-21T10:26:41.690Z,37.55
2023-05-21T10:29:09.235Z,37.23
2023-05-21T10:31:38.892Z,38.60
2023-05-21T10:34:06.502Z,36.84
2023-05-21T10:36:34.523Z,37.07
2023-05-21T10:39:02.914Z,36.81
2023-05-21T10:41:35.941Z,35.58
2023-05-21T10:44:23.698Z,36.82
2023-05-21T10:46:51.229Z,35.26
2023-05-21T10:49:37.440Z,35.61
2023-05-21T10:52:24.356Z,37.94
2023-05-21T10:54:58.216Z,36.03
2023-05-21T10:57:31.510Z,35.63
2023-05-21T10:59:59.283Z,34.19
2023-05-21T11:02:27.590Z,32.96
2023-05-21T11:04:58.959Z,32.22
2023-05-21T11:08:02.569Z,32.92
2023-05-21T11:10:40.879Z,33.23
2023-05-21T11:13:19.969Z,33.30
2023-05-21T11:16:02.889Z,34.24
2023-05-21T11:18:38.113Z,33.58
2023-05-21T11:21:13.727Z,34.05
2023-05-21T11:24:04.339Z,34.36
2023-05-21T11:26:50.521Z,32.89
2023-05-21T11:29:18.346Z,32.99
2023-05-21T11:31:49.160Z,32.76
2023-05-21T11:34:21.914Z,32.86
2023-05-21T11:36:50.212Z,33.47
2023-05-21T11:39:22.204Z,33.68
2023-05-21T11:42:03.135Z,33.64
2023-05-21T11:44:42.322Z,33.31
2023-05-21T11:47:12.438Z,33.86
2023-05-21T11:49:40.054Z,34.44
2023-05-21T11:52:08.078Z,34.47
2023-05-21T11:54:40.507Z,34.87
2023-05-21T11:57:08.380Z,34.80
2023-05-21T11:59:36.696Z,34.29
2023-05-21T12:02:04.338Z,34.24
2023-05-21T12:04:38.832Z,34.88
2023-05-21T12:07:09.682Z,33.72
2023-05-21T12:09:41.179Z,33.68
2023-05-21T12:12:09.150Z,33.29
2023-05-21T12:14:36.972Z,33.08
2023-05-21T12:17:04.883Z,32.72
2023-05-21T12:19:32.974Z,33.85
2023-05-21T12:22:04.258Z,32.85
2023-05-21T12:24:32.253Z,33.52
2023-05-21T12:27:01.124Z,33.78
2023-05-21T12:29:30.070Z,32.82
2023-05-21T12:32:01.430Z,33.42
2023-05-21T12:34:46.246Z,33.09
2023-05-21T12:37:22.000Z,33.12
2023-05-21T12:39:50.361Z,32.84
2023-05-21T12:42:25.146Z,33.11
2023-05-21T12:44:53.212Z,33.22
2023-05-21T12:47:23.275Z,33.38
2023-05-21T12:49:53.493Z,34.56
2023-05-21T12:52:23.219Z,33.25
2023-05-21T12:54:54.408Z,33.49
2023-05-21T12:57:25.405Z,33.41
2023-05-21T12:59:53.877Z,33.90
2023-05-21T13:02:22.681Z,33.73
2023-05-21T13:04:54.392Z,34.50
2023-05-21T13:07:21.858Z,33.43
2023-05-21T13:09:50.150Z,33.37
2023-05-21T13:12:17.466Z,33.64
2023-05-21T13:14:44.940Z,32.97
2023-05-21T13:17:12.756Z,32.95
2023-05-21T13:19:40.093Z,33.40
2023-05-21T13:22:07.783Z,33.78
2023-05-21T13:24:35.063Z,33.90
2023-05-21T13:27:02.480Z,34.00
2023-05-21T13:29:29.851Z,34.28
2023-05-21T13:31:57.265Z,34.32
2023-05-21T13:34:25.810Z,34.83
2023-05-21T13:36:53.220Z,34.70
2023-05-21T13:39:26.831Z,34.23
2023-05-21T13:41:54.204Z,32.62
2023-05-21T13:44:21.665Z,32.46
2023-05-21T13:46:49.126Z,32.51
2023-05-21T13:49:16.617Z,31.56
2023-05-21T13:51:44.023Z,32.60
2023-05-21T13:54:11.420Z,33.41
2023-05-21T13:56:38.953Z,34.38
2023-05-21T13:59:06.361Z,34.32
2023-05-21T14:01:33.986Z,34.29
2023-05-21T14:04:04.353Z,33.53
2023-05-21T14:06:32.205Z,33.34
2023-05-21T14:09:00.487Z,34.25
2023-05-21T14:11:28.452Z,32.99
2023-05-21T14:13:56.256Z,33.70
2023-05-21T14:16:26.506Z,32.36
2023-05-21T14:18:54.828Z,32.76
2023-05-21T14:21:22.553Z,33.02
2023-05-21T14:23:50.249Z,31.87
2023-05-21T14:26:18.040Z,33.90
2023-05-21T14:28:46.319Z,34.06
2023-05-21T14:31:15.021Z,33.85
2023-05-21T14:33:42.444Z,32.17
2023-05-21T14:36:09.919Z,32.98
2023-05-21T14:38:37.490Z,31.13
2023-05-21T14:41:04.874Z,31.25
2023-05-21T14:43:32.276Z,31.51
2023-05-21T14:45:59.834Z,31.13
2023-05-21T14:48:27.226Z,30.75
2023-05-21T14:50:54.924Z,30.83
2023-05-21T14:53:22.396Z,30.86
2023-05-21T14:55:49.676Z,30.31
2023-05-21T14:58:17.522Z,31.17
2023-05-21T15:00:44.871Z,31.54
2023-05-21T15:03:13.173Z,31.28
2023-05-21T15:05:40.894Z,31.81
2023-05-21T15:08:09.786Z,31.49
2023-05-21T15:10:37.397Z,31.68
2023-05-21T15:13:05.064Z,32.51
2023-05-21T15:15:32.371Z,33.15
2023-05-21T15:17:59.898Z,33.08
2023-05-21T15:20:27.243Z,33.29
2023-05-21T15:23:05.016Z,32.94
2023-05-21T15:25:42.262Z,32.99
2023-05-21T15:28:09.582Z,33.36
2023-05-21T15:30:40.060Z,34.49
2023-05-21T15:33:08.937Z,33.92
2023-05-21T15:35:36.925Z,34.36
2023-05-21T15:38:04.612Z,33.44
2023-05-21T15:40:32.382Z,33.50
2023-05-21T15:42:59.999Z,33.69
2023-05-21T15:45:27.500Z,33.54
2023-05-21T15:47:55.041Z,33.56
2023-05-21T15:50:22.571Z,32.96
2023-05-21T15:52:51.648Z,33.37
2023-05-21T15:55:21.076Z,34.37
2023-05-21T15:57:49.006Z,34.01
2023-05-21T16:00:16.759Z,34.95
2023-05-21T16:02:44.315Z,34.80
2023-05-21T16:05:15.074Z,36.22
2023-05-21T16:07:42.724Z,36.50
2023-05-21T16:10:10.721Z,35.86
2023-05-21T16:12:49.000Z,35.65
2023-05-21T16:15:17.165Z,36.02
2023-05-21T16:17:45.169Z,35.55
2023-05-21T16:20:13.117Z,35.70
2023-05-21T16:22:40.861Z,36.33
2023-05-21T16:25:08.857Z,37.06
2023-05-21T16:27:37.179Z,37.13
2023-05-21T16:30:05.926Z,37.31
2023-05-21T16:32:33.645Z,37.69
2023-05-21T16:35:02.112Z,38.63
2023-05-21T16:37:30.415Z,38.30
2023-05-21T16:39:58.745Z,39.42
2023-05-21T16:42:27.216Z,37.43
2023-05-21T16:44:56.925Z,37.57
2023-05-21T16:47:25.919Z,40.51
2023-05-21T16:49:55.866Z,39.41
2023-05-21T16:52:24.021Z,40.47
2023-05-21T16:54:52.224Z,40.34
2023-05-21T16:57:20.218Z,40.19
2023-05-21T16:59:48.447Z,40.04
2023-05-21T17:02:16.544Z,40.47
2023-05-21T17:04:44.292Z,40.38
2023-05-21T17:07:12.614Z,41.67
2023-05-21T17:09:40.657Z,45.33
2023-05-21T17:12:08.647Z,41.83
2023-05-21T17:14:37.655Z,42.94
2023-05-21T17:17:07.477Z,45.05
2023-05-21T17:19:35.675Z,46.75
2023-05-21T17:22:04.185Z,44.26
2023-05-21T17:24:32.184Z,43.87
2023-05-21T17:27:00.536Z,46.44
2023-05-21T17:29:28.354Z,48.89
2023-05-21T17:31:56.416Z,47.10
2023-05-21T17:34:29.657Z,46.48
2023-05-21T17:36:59.088Z,48.83
2023-05-21T17:39:27.101Z,48.04
2023-05-21T17:41:56.222Z,48.04
2023-05-21T17:44:23.994Z,52.32
2023-05-21T17:46:52.352Z,53.43
2023-05-21T17:49:20.646Z,53.63
2023-05-21T17:51:48.538Z,54.46
2023-05-21T17:54:16.472Z,56.26
2023-05-21T17:56:46.455Z,50.73
2023-05-21T17:59:15.593Z,55.86
2023-05-21T18:01:43.177Z,55.37
2023-05-21T18:04:12.433Z,58.44
2023-05-21T18:06:40.175Z,58.46
2023-05-21T18:09:08.151Z,58.88
2023-05-21T18:11:35.716Z,61.00
2023-05-21T18:14:04.194Z,60.20
2023-05-21T18:16:31.834Z,60.58
2023-05-21T18:19:02.158Z,60.88
2023-05-21T18:21:29.693Z,62.04
2023-05-21T18:23:57.173Z,58.52
2023-05-21T18:26:25.147Z,59.33
2023-05-21T18:28:52.701Z,61.22
2023-05-21T18:31:20.353Z,63.51
2023-05-21T18:33:47.901Z,64.81
2023-05-21T18:36:15.417Z,65.52
2023-05-21T18:38:43.337Z,66.45
2023-05-21T18:41:10.881Z,66.74
2023-05-21T18:43:38.247Z,67.79
2023-05-21T18:46:05.839Z,68.74
2023-05-21T18:48:33.523Z,69.12
2023-05-21T18:51:01.390Z,70.32
2023-05-21T18:53:28.897Z,70.85
2023-05-21T18:55:56.470Z,71.06
2023-05-21T18:58:23.914Z,71.73
2023-05-21T19:00:51.423Z,72.48
2023-05-21T19:03:18.955Z,72.35
2023-05-21T19:05:46.820Z,72.82
2023-05-21T19:08:14.727Z,73.10
2023-05-21T19:10:42.232Z,72.72
2023-05-21T19:17:37.203Z,72.93
2023-05-21T19:19:00.326Z,72.32
2023-05-21T19:21:28.849Z,71.69
2023-05-21T19:23:56.516Z,71.74
2023-05-21T19:26:25.291Z,73.31
2023-05-21T19:28:54.679Z,74.12
2023-05-21T19:31:23.358Z,74.97
2023-05-21T19:33:52.341Z,73.59
2023-05-21T19:36:21.287Z,73.38
2023-05-21T19:38:50.249Z,74.34
2023-05-21T19:41:19.202Z,74.36
2023-05-21T19:43:47.510Z,75.42
2023-05-21T19:46:19.268Z,74.65
2023-05-21T19:48:49.701Z,73.41
2023-05-21T19:51:17.590Z,74.63
2023-05-21T19:53:45.636Z,74.95
2023-05-21T19:56:13.575Z,76.32
2023-05-21T19:58:41.733Z,76.38
2023-05-21T20:01:11.813Z,75.91
2023-05-21T20:03:45.339Z,76.36
2023-05-21T20:06:14.011Z,75.80
2023-05-21T20:08:41.962Z,75.58
2023-05-21T20:11:11.729Z,75.38
2023-05-21T20:13:40.311Z,75.76
2023-05-21T20:16:08.644Z,76.07
2023-05-21T20:18:36.673Z,75.30
2023-05-21T20:21:06.854Z,75.82
2023-05-21T20:23:34.955Z,76.33
2023-05-21T20:26:03.003Z,76.90
2023-05-21T20:28:30.571Z,76.16
2023-05-21T20:30:58.968Z,74.77
2023-05-21T20:33:27.981Z,74.72
2023-05-21T20:35:55.683Z,74.11
2023-05-21T20:38:25.792Z,75.49
2023-05-21T20:40:55.138Z,75.80
2023-05-21T20:43:24.656Z,76.28
2023-05-21T20:45:59.905Z,75.32
2023-05-21T20:48:29.820Z,74.67
2023-05-21T20:51:00.468Z,75.70
2023-05-21T20:53:28.121Z,75.02
2023-05-21T20:55:55.781Z,76.29
2023-05-21T20:58:26.312Z,75.23
2023-05-21T21:00:55.323Z,75.64
2023-05-21T21:03:23.126Z,75.81
2023-05-21T21:05:50.838Z,74.29
2023-05-21T21:08:18.281Z,73.98
2023-05-21T21:10:47.089Z,75.42
2023-05-21T21:13:15.050Z,76.17
2023-05-21T21:15:44.020Z,74.20
2023-05-21T21:18:14.758Z,74.07
2023-05-21T21:20:42.795Z,74.39
2023-05-21T21:23:10.426Z,76.60
2023-05-21T21:25:38.037Z,73.49
2023-05-21T21:28:05.558Z,72.69
2023-05-21T21:30:33.216Z,74.04
2023-05-21T21:33:00.673Z,72.05
2023-05-21T21:35:28.208Z,73.76
2023-05-21T21:37:55.642Z,73.31
2023-05-21T21:40:23.108Z,73.79
2023-05-21T21:42:50.567Z,72.81
2023-05-21T21:45:18.019Z,72.87
2023-05-21T21:47:45.500Z,75.19
2023-05-21T21:50:12.940Z,74.74
2023-05-21T21:52:40.563Z,73.37
2023-05-21T21:55:11.599Z,74.40
2023-05-21T21:57:39.187Z,73.52
2023-05-21T22:00:11.693Z,75.80
2023-05-21T22:02:40.426Z,75.74
2023-05-21T22:05:08.840Z,75.61
2023-05-21T22:07:38.957Z,76.11
2023-05-21T22:10:06.659Z,75.10
2023-05-21T22:12:34.303Z,74.53
2023-05-21T22:15:05.925Z,75.22
2023-05-21T22:17:34.281Z,75.11
2023-05-21T22:20:01.959Z,74.08
2023-05-21T22:22:29.625Z,76.18
2023-05-21T22:24:57.181Z,75.71
2023-05-21T22:27:24.750Z,76.64
2023-05-21T22:29:52.199Z,75.30
2023-05-21T22:32:20.384Z,75.91
2023-05-21T22:34:47.833Z,75.31
2023-05-21T22:37:15.396Z,76.38
2023-05-21T22:39:42.914Z,75.41
2023-05-21T22:42:10.265Z,76.14
2023-05-21T22:44:37.722Z,75.19
2023-05-21T22:47:05.184Z,75.62
2023-05-21T22:49:32.865Z,75.35
2023-05-21T22:52:05.411Z,75.28
2023-05-21T22:54:33.146Z,75.30
2023-05-21T22:57:01.266Z,75.44
2023-05-21T22:59:29.089Z,74.48
2023-05-21T23:01:56.577Z,73.85
2023-05-21T23:04:32.214Z,74.27
2023-05-21T23:07:07.750Z,74.29
2023-05-21T23:09:35.251Z,74.26
2023-05-21T23:12:02.979Z,73.51
2023-05-21T23:14:30.493Z,73.11
2023-05-21T23:17:01.940Z,74.29
2023-05-21T23:19:31.571Z,72.87
2023-05-21T23:22:00.250Z,69.70
2023-05-21T23:24:29.570Z,60.60
2023-05-21T23:27:02.274Z,58.36
2023-05-21T23:29:30.496Z,63.80
2023-05-21T23:31:58.040Z,57.00
2023-05-21T23:34:25.881Z,55.03
2023-05-21T23:36:53.336Z,53.47
2023-05-21T23:39:21.220Z,52.36
2023-05-21T23:41:48.756Z,51.70
2023-05-21T23:44:16.600Z,51.60
2023-05-21T23:46:43.999Z,50.70
2023-05-21T23:49:11.799Z,52.02
2023-05-21T23:51:39.571Z,50.69
2023-05-21T23:54:08.088Z,51.08
2023-05-21T23:56:35.824Z,50.53
2023-05-21T23:59:03.491Z,50.47
